sensor_id;sensor_type;location;lat;lon;timestamp;temperature;humidity
25741;DHT22;13592;50.838;4.412;2022-11-20T00:00:29;6.80;99.90
25741;DHT22;13592;50.838;4.412;2022-11-20T00:03:05;6.80;99.90
25741;DHT22;13592;50.838;4.412;2022-11-20T00:05:33;6.90;99.90
25741;DHT22;13592;50.838;4.412;2022-11-20T00:08:05;6.80;99.90
25741;DHT22;13592;50.838;4.412;2022-11-20T00:13:10;6.70;99.90
25741;DHT22;13592;50.838;4.412;2022-11-20T00:15:36;6.90;99.90
25741;DHT22;13592;50.838;4.412;2022-11-20T00:18:24;6.80;99.90
25741;DHT22;13592;50.838;4.412;2022-11-20T00:26:46;6.70;99.90
25741;DHT22;13592;50.838;4.412;2022-11-20T00:29:35;6.70;99.90
25741;DHT22;13592;50.838;4.412;2022-11-20T00:35:13;6.70;99.90
25741;DHT22;13592;50.838;4.412;2022-11-20T00:37:56;6.70;99.90
25741;DHT22;13592;50.838;4.412;2022-11-20T00:40:37;6.80;99.90
25741;DHT22;13592;50.838;4.412;2022-11-20T00:43:12;6.70;99.90
25741;DHT22;13592;50.838;4.412;2022-11-20T00:45:41;6.80;99.90
25741;DHT22;13592;50.838;4.412;2022-11-20T00:48:10;6.70;99.90
25741;DHT22;13592;50.838;4.412;2022-11-20T00:50:39;6.60;99.90
25741;DHT22;13592;50.838;4.412;2022-11-20T00:53:10;6.70;99.90
25741;DHT22;13592;50.838;4.412;2022-11-20T00:55:58;6.80;99.90
25741;DHT22;13592;50.838;4.412;2022-11-20T00:58:34;6.70;99.90
25741;DHT22;13592;50.838;4.412;2022-11-20T01:01:03;6.60;99.90
25741;DHT22;13592;50.838;4.412;2022-11-20T01:03:38;6.50;99.90
25741;DHT22;13592;50.838;4.412;2022-11-20T01:08:50;6.60;99.90
25741;DHT22;13592;50.838;4.412;2022-11-20T01:11:21;6.70;99.90
25741;DHT22;13592;50.838;4.412;2022-11-20T01:13:50;6.50;99.90
25741;DHT22;13592;50.838;4.412;2022-11-20T01:16:30;6.50;99.90
25741;DHT22;13592;50.838;4.412;2022-11-20T01:18:58;6.40;99.90
25741;DHT22;13592;50.838;4.412;2022-11-20T01:21:27;6.80;99.90
25741;DHT22;13592;50.838;4.412;2022-11-20T01:24:08;6.70;99.90
25741;DHT22;13592;50.838;4.412;2022-11-20T01:27:00;6.70;99.90
25741;DHT22;13592;50.838;4.412;2022-11-20T01:29:37;6.60;99.90
25741;DHT22;13592;50.838;4.412;2022-11-20T01:32:03;6.50;99.90
25741;DHT22;13592;50.838;4.412;2022-11-20T01:37:37;6.50;99.90
25741;DHT22;13592;50.838;4.412;2022-11-20T01:40:25;6.60;99.90
25741;DHT22;13592;50.838;4.412;2022-11-20T01:43:23;6.50;99.90
25741;DHT22;13592;50.838;4.412;2022-11-20T01:46:02;6.50;99.90
25741;DHT22;13592;50.838;4.412;2022-11-20T01:48:31;6.60;99.90
25741;DHT22;13592;50.838;4.412;2022-11-20T01:51:12;6.60;99.90
25741;DHT22;13592;50.838;4.412;2022-11-20T01:53:40;6.50;99.90
25741;DHT22;13592;50.838;4.412;2022-11-20T01:56:39;6.60;99.90
25741;DHT22;13592;50.838;4.412;2022-11-20T01:59:13;6.70;99.90
25741;DHT22;13592;50.838;4.412;2022-11-20T02:01:46;6.70;99.90
25741;DHT22;13592;50.838;4.412;2022-11-20T02:04:13;6.80;99.90
25741;DHT22;13592;50.838;4.412;2022-11-20T02:06:42;6.70;99.90
25741;DHT22;13592;50.838;4.412;2022-11-20T02:09:09;6.80;99.90
25741;DHT22;13592;50.838;4.412;2022-11-20T02:11:41;6.80;99.90
25741;DHT22;13592;50.838;4.412;2022-11-20T02:14:12;6.70;99.90
25741;DHT22;13592;50.838;4.412;2022-11-20T02:16:54;6.60;99.90
25741;DHT22;13592;50.838;4.412;2022-11-20T02:19:32;6.60;99.90
25741;DHT22;13592;50.838;4.412;2022-11-20T02:27:17;6.60;99.90
25741;DHT22;13592;50.838;4.412;2022-11-20T02:30:04;6.80;99.90
25741;DHT22;13592;50.838;4.412;2022-11-20T02:32:37;7.00;99.90
25741;DHT22;13592;50.838;4.412;2022-11-20T02:40:37;7.20;99.90
25741;DHT22;13592;50.838;4.412;2022-11-20T02:45:57;7.50;99.90
25741;DHT22;13592;50.838;4.412;2022-11-20T02:53:47;7.20;99.90
25741;DHT22;13592;50.838;4.412;2022-11-20T02:59:21;7.20;99.90
25741;DHT22;13592;50.838;4.412;2022-11-20T03:01:47;7.10;99.90
25741;DHT22;13592;50.838;4.412;2022-11-20T03:04:38;6.90;99.90
25741;DHT22;13592;50.838;4.412;2022-11-20T03:07:15;6.90;99.90
25741;DHT22;13592;50.838;4.412;2022-11-20T03:09:43;7.00;99.90
25741;DHT22;13592;50.838;4.412;2022-11-20T03:12:09;7.10;99.90
25741;DHT22;13592;50.838;4.412;2022-11-20T03:14:36;7.00;99.90
25741;DHT22;13592;50.838;4.412;2022-11-20T03:17:04;7.00;99.90
25741;DHT22;13592;50.838;4.412;2022-11-20T03:22:07;7.10;99.90
25741;DHT22;13592;50.838;4.412;2022-11-20T03:24:34;6.90;99.90
25741;DHT22;13592;50.838;4.412;2022-11-20T03:29:38;7.00;99.90
25741;DHT22;13592;50.838;4.412;2022-11-20T03:32:13;6.90;99.90
25741;DHT22;13592;50.838;4.412;2022-11-20T03:34:40;7.00;99.90
25741;DHT22;13592;50.838;4.412;2022-11-20T03:37:13;7.10;99.90
25741;DHT22;13592;50.838;4.412;2022-11-20T03:40:06;7.10;99.90
25741;DHT22;13592;50.838;4.412;2022-11-20T03:42:45;7.20;99.90
25741;DHT22;13592;50.838;4.412;2022-11-20T03:45:19;7.00;99.90
25741;DHT22;13592;50.838;4.412;2022-11-20T03:47:46;7.10;99.90
25741;DHT22;13592;50.838;4.412;2022-11-20T03:50:17;7.00;99.90
25741;DHT22;13592;50.838;4.412;2022-11-20T03:52:50;7.00;99.90
25741;DHT22;13592;50.838;4.412;2022-11-20T03:55:18;6.80;99.90
25741;DHT22;13592;50.838;4.412;2022-11-20T03:57:45;6.90;99.90
25741;DHT22;13592;50.838;4.412;2022-11-20T04:00:29;6.90;99.90
25741;DHT22;13592;50.838;4.412;2022-11-20T04:02:59;7.00;99.90
25741;DHT22;13592;50.838;4.412;2022-11-20T04:08:27;7.10;99.90
25741;DHT22;13592;50.838;4.412;2022-11-20T04:10:53;7.00;99.90
25741;DHT22;13592;50.838;4.412;2022-11-20T04:13:27;6.90;99.90
25741;DHT22;13592;50.838;4.412;2022-11-20T04:15:59;6.90;99.90
25741;DHT22;13592;50.838;4.412;2022-11-20T04:18:38;7.10;99.90
25741;DHT22;13592;50.838;4.412;2022-11-20T04:21:09;6.90;99.90
25741;DHT22;13592;50.838;4.412;2022-11-20T04:26:12;7.00;99.90
25741;DHT22;13592;50.838;4.412;2022-11-20T04:28:41;7.20;99.90
25741;DHT22;13592;50.838;4.412;2022-11-20T04:31:10;7.00;99.90
25741;DHT22;13592;50.838;4.412;2022-11-20T04:33:40;6.90;99.90
25741;DHT22;13592;50.838;4.412;2022-11-20T04:38:44;6.80;99.90
25741;DHT22;13592;50.838;4.412;2022-11-20T04:41:16;6.80;99.90
25741;DHT22;13592;50.838;4.412;2022-11-20T04:43:51;6.90;99.90
25741;DHT22;13592;50.838;4.412;2022-11-20T04:46:31;6.90;99.90
25741;DHT22;13592;50.838;4.412;2022-11-20T04:48:59;6.80;99.90
25741;DHT22;13592;50.838;4.412;2022-11-20T04:51:25;6.80;99.90
25741;DHT22;13592;50.838;4.412;2022-11-20T04:53:53;7.20;99.90
25741;DHT22;13592;50.838;4.412;2022-11-20T04:56:32;7.00;99.90
25741;DHT22;13592;50.838;4.412;2022-11-20T05:01:53;6.90;99.90
25741;DHT22;13592;50.838;4.412;2022-11-20T05:04:26;6.90;99.90
25741;DHT22;13592;50.838;4.412;2022-11-20T05:06:58;7.10;99.90
25741;DHT22;13592;50.838;4.412;2022-11-20T05:09:47;7.00;99.90
25741;DHT22;13592;50.838;4.412;2022-11-20T05:15:18;7.60;99.90
25741;DHT22;13592;50.838;4.412;2022-11-20T05:20:18;7.10;99.90
25741;DHT22;13592;50.838;4.412;2022-11-20T05:22:44;7.00;99.90
25741;DHT22;13592;50.838;4.412;2022-11-20T05:25:09;7.00;99.90
25741;DHT22;13592;50.838;4.412;2022-11-20T05:27:44;7.00;99.90
25741;DHT22;13592;50.838;4.412;2022-11-20T05:30:18;6.90;99.90
25741;DHT22;13592;50.838;4.412;2022-11-20T05:32:46;7.00;99.90
25741;DHT22;13592;50.838;4.412;2022-11-20T05:35:19;7.20;99.90
25741;DHT22;13592;50.838;4.412;2022-11-20T05:37:56;7.20;99.90
25741;DHT22;13592;50.838;4.412;2022-11-20T05:40:27;7.30;99.90
25741;DHT22;13592;50.838;4.412;2022-11-20T05:42:56;7.10;99.90
25741;DHT22;13592;50.838;4.412;2022-11-20T05:45:23;7.10;99.90
25741;DHT22;13592;50.838;4.412;2022-11-20T05:47:50;7.30;99.90
25741;DHT22;13592;50.838;4.412;2022-11-20T05:50:16;7.30;99.90
25741;DHT22;13592;50.838;4.412;2022-11-20T05:52:45;7.20;99.90
25741;DHT22;13592;50.838;4.412;2022-11-20T05:55:22;7.10;99.90
25741;DHT22;13592;50.838;4.412;2022-11-20T05:57:52;7.20;99.90
25741;DHT22;13592;50.838;4.412;2022-11-20T06:00:27;7.20;99.90
25741;DHT22;13592;50.838;4.412;2022-11-20T06:02:54;7.10;99.90
25741;DHT22;13592;50.838;4.412;2022-11-20T06:05:21;7.10;99.90
25741;DHT22;13592;50.838;4.412;2022-11-20T06:07:50;7.10;99.90
25741;DHT22;13592;50.838;4.412;2022-11-20T06:10:16;7.20;99.90
25741;DHT22;13592;50.838;4.412;2022-11-20T06:12:48;7.20;99.90
25741;DHT22;13592;50.838;4.412;2022-11-20T06:15:24;7.30;99.90
25741;DHT22;13592;50.838;4.412;2022-11-20T06:17:54;7.30;99.90
25741;DHT22;13592;50.838;4.412;2022-11-20T06:20:22;7.40;99.90
25741;DHT22;13592;50.838;4.412;2022-11-20T06:22:56;7.30;99.90
25741;DHT22;13592;50.838;4.412;2022-11-20T06:27:56;7.50;99.90
25741;DHT22;13592;50.838;4.412;2022-11-20T06:30:25;7.60;99.90
25741;DHT22;13592;50.838;4.412;2022-11-20T06:35:42;7.70;99.90
25741;DHT22;13592;50.838;4.412;2022-11-20T06:38:09;7.50;99.90
25741;DHT22;13592;50.838;4.412;2022-11-20T06:43:53;7.60;99.90
25741;DHT22;13592;50.838;4.412;2022-11-20T06:49:16;7.20;99.90
25741;DHT22;13592;50.838;4.412;2022-11-20T06:51:44;7.40;99.90
25741;DHT22;13592;50.838;4.412;2022-11-20T06:54:15;7.20;99.90
25741;DHT22;13592;50.838;4.412;2022-11-20T06:56:52;7.30;99.90
25741;DHT22;13592;50.838;4.412;2022-11-20T07:02:09;7.40;99.90
25741;DHT22;13592;50.838;4.412;2022-11-20T07:04:37;7.50;99.90
25741;DHT22;13592;50.838;4.412;2022-11-20T07:07:08;7.40;99.90
25741;DHT22;13592;50.838;4.412;2022-11-20T07:09:50;7.50;99.90
25741;DHT22;13592;50.838;4.412;2022-11-20T07:17:23;7.30;99.90
25741;DHT22;13592;50.838;4.412;2022-11-20T07:19:49;7.30;99.90
25741;DHT22;13592;50.838;4.412;2022-11-20T07:22:16;7.40;99.90
25741;DHT22;13592;50.838;4.412;2022-11-20T07:24:57;7.60;99.90
25741;DHT22;13592;50.838;4.412;2022-11-20T07:27:29;7.70;99.90
25741;DHT22;13592;50.838;4.412;2022-11-20T07:29:57;7.60;99.90
25741;DHT22;13592;50.838;4.412;2022-11-20T07:32:46;7.70;99.90
25741;DHT22;13592;50.838;4.412;2022-11-20T07:35:16;7.50;99.90
25741;DHT22;13592;50.838;4.412;2022-11-20T07:37:48;7.50;99.90
25741;DHT22;13592;50.838;4.412;2022-11-20T07:40:17;7.60;99.90
25741;DHT22;13592;50.838;4.412;2022-11-20T07:42:49;7.60;99.90
25741;DHT22;13592;50.838;4.412;2022-11-20T07:45:35;7.50;99.90
25741;DHT22;13592;50.838;4.412;2022-11-20T07:48:02;7.40;99.90
25741;DHT22;13592;50.838;4.412;2022-11-20T07:50:28;7.30;99.90
25741;DHT22;13592;50.838;4.412;2022-11-20T07:53:02;7.30;99.90
25741;DHT22;13592;50.838;4.412;2022-11-20T07:55:45;7.40;99.90
25741;DHT22;13592;50.838;4.412;2022-11-20T08:00:47;7.80;99.90
25741;DHT22;13592;50.838;4.412;2022-11-20T08:03:19;7.80;99.90
25741;DHT22;13592;50.838;4.412;2022-11-20T08:05:54;7.60;99.90
25741;DHT22;13592;50.838;4.412;2022-11-20T08:08:24;7.80;99.90
25741;DHT22;13592;50.838;4.412;2022-11-20T08:11:02;7.90;99.90
25741;DHT22;13592;50.838;4.412;2022-11-20T08:16:51;7.70;99.90
25741;DHT22;13592;50.838;4.412;2022-11-20T08:19:17;8.10;99.90
25741;DHT22;13592;50.838;4.412;2022-11-20T08:21:51;8.40;99.90
25741;DHT22;13592;50.838;4.412;2022-11-20T08:27:18;8.20;99.90
25741;DHT22;13592;50.838;4.412;2022-11-20T08:29:46;8.10;99.90
25741;DHT22;13592;50.838;4.412;2022-11-20T08:32:16;8.00;99.90
25741;DHT22;13592;50.838;4.412;2022-11-20T08:34:41;8.00;99.90
25741;DHT22;13592;50.838;4.412;2022-11-20T08:37:09;8.00;99.90
25741;DHT22;13592;50.838;4.412;2022-11-20T08:39:41;8.10;99.90
25741;DHT22;13592;50.838;4.412;2022-11-20T08:44:46;8.30;99.90
25741;DHT22;13592;50.838;4.412;2022-11-20T08:47:16;8.20;99.90
25741;DHT22;13592;50.838;4.412;2022-11-20T08:49:44;8.20;99.90
25741;DHT22;13592;50.838;4.412;2022-11-20T08:52:15;8.10;99.90
25741;DHT22;13592;50.838;4.412;2022-11-20T09:00:22;8.20;99.90
25741;DHT22;13592;50.838;4.412;2022-11-20T09:02:58;8.20;99.90
25741;DHT22;13592;50.838;4.412;2022-11-20T09:05:24;8.20;99.90
25741;DHT22;13592;50.838;4.412;2022-11-20T09:07:51;8.40;99.90
25741;DHT22;13592;50.838;4.412;2022-11-20T09:10:20;8.50;99.90
25741;DHT22;13592;50.838;4.412;2022-11-20T09:12:51;8.50;99.90
25741;DHT22;13592;50.838;4.412;2022-11-20T09:15:17;8.60;99.90
25741;DHT22;13592;50.838;4.412;2022-11-20T09:17:59;8.70;99.90
25741;DHT22;13592;50.838;4.412;2022-11-20T09:20:26;8.80;99.90
25741;DHT22;13592;50.838;4.412;2022-11-20T09:23:18;9.00;99.90
25741;DHT22;13592;50.838;4.412;2022-11-20T09:25:44;8.90;99.90
25741;DHT22;13592;50.838;4.412;2022-11-20T09:28:17;8.80;99.90
25741;DHT22;13592;50.838;4.412;2022-11-20T09:30:48;9.00;99.90
25741;DHT22;13592;50.838;4.412;2022-11-20T09:33:30;8.80;99.90
25741;DHT22;13592;50.838;4.412;2022-11-20T09:35:57;8.80;99.90
25741;DHT22;13592;50.838;4.412;2022-11-20T09:38:24;9.10;99.90
25741;DHT22;13592;50.838;4.412;2022-11-20T09:54:33;9.20;99.90
25741;DHT22;13592;50.838;4.412;2022-11-20T09:57:23;9.20;99.90
25741;DHT22;13592;50.838;4.412;2022-11-20T09:59:59;9.20;99.90
25741;DHT22;13592;50.838;4.412;2022-11-20T10:05:27;9.20;99.90
25741;DHT22;13592;50.838;4.412;2022-11-20T10:10:41;9.50;99.90
25741;DHT22;13592;50.838;4.412;2022-11-20T10:13:27;9.40;99.90
25741;DHT22;13592;50.838;4.412;2022-11-20T10:16:01;9.50;99.90
25741;DHT22;13592;50.838;4.412;2022-11-20T10:26:53;9.60;99.90
25741;DHT22;13592;50.838;4.412;2022-11-20T10:29:29;9.80;99.90
25741;DHT22;13592;50.838;4.412;2022-11-20T10:32:07;10.00;99.90
25741;DHT22;13592;50.838;4.412;2022-11-20T10:37:11;9.90;99.90
25741;DHT22;13592;50.838;4.412;2022-11-20T10:42:13;10.10;99.90
25741;DHT22;13592;50.838;4.412;2022-11-20T10:44:47;10.20;99.90
25741;DHT22;13592;50.838;4.412;2022-11-20T10:47:31;10.40;99.90
25741;DHT22;13592;50.838;4.412;2022-11-20T10:50:01;10.50;99.90
25741;DHT22;13592;50.838;4.412;2022-11-20T11:01:05;10.50;99.90
25741;DHT22;13592;50.838;4.412;2022-11-20T11:03:50;10.40;99.90
25741;DHT22;13592;50.838;4.412;2022-11-20T11:09:11;10.60;99.90
25741;DHT22;13592;50.838;4.412;2022-11-20T11:11:42;10.50;99.90
25741;DHT22;13592;50.838;4.412;2022-11-20T11:14:12;10.70;99.90
25741;DHT22;13592;50.838;4.412;2022-11-20T11:19:40;10.60;99.90
25741;DHT22;13592;50.838;4.412;2022-11-20T11:24:34;10.60;99.90
25741;DHT22;13592;50.838;4.412;2022-11-20T11:30:17;10.30;99.90
25741;DHT22;13592;50.838;4.412;2022-11-20T11:32:43;10.40;99.90
25741;DHT22;13592;50.838;4.412;2022-11-20T11:35:25;10.30;99.90
25741;DHT22;13592;50.838;4.412;2022-11-20T11:37:52;10.50;99.90
25741;DHT22;13592;50.838;4.412;2022-11-20T11:40:27;10.60;99.90
25741;DHT22;13592;50.838;4.412;2022-11-20T11:42:59;10.50;99.90
25741;DHT22;13592;50.838;4.412;2022-11-20T11:48:00;10.30;99.90
25741;DHT22;13592;50.838;4.412;2022-11-20T11:50:32;10.30;99.90
25741;DHT22;13592;50.838;4.412;2022-11-20T11:53:17;10.50;99.90
25741;DHT22;13592;50.838;4.412;2022-11-20T11:58:42;10.20;99.90
25741;DHT22;13592;50.838;4.412;2022-11-20T12:06:31;10.20;99.90
25741;DHT22;13592;50.838;4.412;2022-11-20T12:09:03;10.20;99.90
25741;DHT22;13592;50.838;4.412;2022-11-20T12:11:38;10.10;99.90
25741;DHT22;13592;50.838;4.412;2022-11-20T12:14:21;10.20;99.90
25741;DHT22;13592;50.838;4.412;2022-11-20T12:16:50;10.30;99.90
25741;DHT22;13592;50.838;4.412;2022-11-20T12:19:19;10.30;99.90
25741;DHT22;13592;50.838;4.412;2022-11-20T12:29:59;9.60;99.90
25741;DHT22;13592;50.838;4.412;2022-11-20T12:35:21;9.60;99.90
25741;DHT22;13592;50.838;4.412;2022-11-20T12:48:52;9.20;99.90
25741;DHT22;13592;50.838;4.412;2022-11-20T12:52:08;9.20;99.90
25741;DHT22;13592;50.838;4.412;2022-11-20T13:03:23;9.30;99.90
25741;DHT22;13592;50.838;4.412;2022-11-20T13:07:44;9.40;99.90
25741;DHT22;13592;50.838;4.412;2022-11-20T13:10:17;9.40;99.90
25741;DHT22;13592;50.838;4.412;2022-11-20T13:12:49;9.40;99.90
25741;DHT22;13592;50.838;4.412;2022-11-20T13:20:53;9.50;99.90
25741;DHT22;13592;50.838;4.412;2022-11-20T13:23:24;9.50;99.90
25741;DHT22;13592;50.838;4.412;2022-11-20T13:26:20;9.50;99.90
25741;DHT22;13592;50.838;4.412;2022-11-20T13:28:58;9.50;99.90
25741;DHT22;13592;50.838;4.412;2022-11-20T13:31:34;9.60;99.90
25741;DHT22;13592;50.838;4.412;2022-11-20T13:34:12;9.60;99.90
25741;DHT22;13592;50.838;4.412;2022-11-20T13:39:10;9.40;99.90
25741;DHT22;13592;50.838;4.412;2022-11-20T13:41:42;9.50;99.90
25741;DHT22;13592;50.838;4.412;2022-11-20T13:46:43;9.60;99.90
25741;DHT22;13592;50.838;4.412;2022-11-20T13:57:33;9.70;99.90
25741;DHT22;13592;50.838;4.412;2022-11-20T14:00:13;9.80;99.90
25741;DHT22;13592;50.838;4.412;2022-11-20T14:02:39;9.80;99.90
25741;DHT22;13592;50.838;4.412;2022-11-20T14:05:05;9.80;99.90
25741;DHT22;13592;50.838;4.412;2022-11-20T14:07:35;9.70;99.90
25741;DHT22;13592;50.838;4.412;2022-11-20T14:10:02;9.50;99.90
25741;DHT22;13592;50.838;4.412;2022-11-20T14:12:32;9.60;99.90
25741;DHT22;13592;50.838;4.412;2022-11-20T14:15:22;9.80;99.90
25741;DHT22;13592;50.838;4.412;2022-11-20T14:17:48;9.80;99.90
25741;DHT22;13592;50.838;4.412;2022-11-20T14:20:19;9.60;99.90
25741;DHT22;13592;50.838;4.412;2022-11-20T14:22:59;9.50;99.90
25741;DHT22;13592;50.838;4.412;2022-11-20T14:25:25;9.40;99.90
25741;DHT22;13592;50.838;4.412;2022-11-20T14:30:35;9.50;99.90
25741;DHT22;13592;50.838;4.412;2022-11-20T14:33:05;9.30;99.90
25741;DHT22;13592;50.838;4.412;2022-11-20T14:35:37;9.30;99.90
25741;DHT22;13592;50.838;4.412;2022-11-20T14:38:12;9.40;99.90
25741;DHT22;13592;50.838;4.412;2022-11-20T14:40:42;9.30;99.90
25741;DHT22;13592;50.838;4.412;2022-11-20T14:43:28;9.30;99.90
25741;DHT22;13592;50.838;4.412;2022-11-20T14:46:04;9.30;99.90
25741;DHT22;13592;50.838;4.412;2022-11-20T14:51:33;9.40;99.90
25741;DHT22;13592;50.838;4.412;2022-11-20T14:54:18;9.30;99.90
25741;DHT22;13592;50.838;4.412;2022-11-20T14:56:55;9.40;99.90
25741;DHT22;13592;50.838;4.412;2022-11-20T14:59:25;9.50;99.90
25741;DHT22;13592;50.838;4.412;2022-11-20T15:01:58;9.40;99.90
25741;DHT22;13592;50.838;4.412;2022-11-20T15:07:00;9.50;99.90
25741;DHT22;13592;50.838;4.412;2022-11-20T15:11:59;9.40;99.90
25741;DHT22;13592;50.838;4.412;2022-11-20T15:14:30;9.40;99.90
25741;DHT22;13592;50.838;4.412;2022-11-20T15:16:59;9.40;99.90
25741;DHT22;13592;50.838;4.412;2022-11-20T15:19:27;9.50;99.90
25741;DHT22;13592;50.838;4.412;2022-11-20T15:21:53;9.80;99.90
25741;DHT22;13592;50.838;4.412;2022-11-20T15:24:19;9.70;99.90
25741;DHT22;13592;50.838;4.412;2022-11-20T15:26:46;9.60;99.90
25741;DHT22;13592;50.838;4.412;2022-11-20T15:29:12;9.70;99.90
25741;DHT22;13592;50.838;4.412;2022-11-20T15:31:39;9.70;99.90
25741;DHT22;13592;50.838;4.412;2022-11-20T15:34:14;9.60;99.90
25741;DHT22;13592;50.838;4.412;2022-11-20T15:36:39;9.70;99.90
25741;DHT22;13592;50.838;4.412;2022-11-20T15:39:14;9.70;99.90
25741;DHT22;13592;50.838;4.412;2022-11-20T15:44:12;9.80;99.90
25741;DHT22;13592;50.838;4.412;2022-11-20T15:46:40;9.90;99.90
25741;DHT22;13592;50.838;4.412;2022-11-20T15:49:12;10.00;99.90
25741;DHT22;13592;50.838;4.412;2022-11-20T15:51:43;10.00;99.90
25741;DHT22;13592;50.838;4.412;2022-11-20T15:56:41;9.80;99.90
25741;DHT22;13592;50.838;4.412;2022-11-20T15:59:17;9.80;99.90
25741;DHT22;13592;50.838;4.412;2022-11-20T16:01:43;9.90;99.90
25741;DHT22;13592;50.838;4.412;2022-11-20T16:04:10;9.90;99.90
25741;DHT22;13592;50.838;4.412;2022-11-20T16:09:28;10.20;99.90
25741;DHT22;13592;50.838;4.412;2022-11-20T16:14:27;10.20;99.90
25741;DHT22;13592;50.838;4.412;2022-11-20T16:17:13;10.10;99.90
25741;DHT22;13592;50.838;4.412;2022-11-20T16:19:40;10.10;99.90
25741;DHT22;13592;50.838;4.412;2022-11-20T16:22:10;10.20;99.90
25741;DHT22;13592;50.838;4.412;2022-11-20T16:24:42;10.30;99.90
25741;DHT22;13592;50.838;4.412;2022-11-20T16:27:11;10.30;99.90
25741;DHT22;13592;50.838;4.412;2022-11-20T16:29:43;10.30;99.90
25741;DHT22;13592;50.838;4.412;2022-11-20T16:32:14;10.20;99.90
25741;DHT22;13592;50.838;4.412;2022-11-20T16:34:44;10.20;99.90
25741;DHT22;13592;50.838;4.412;2022-11-20T16:37:13;10.40;99.90
25741;DHT22;13592;50.838;4.412;2022-11-20T16:39:41;10.50;99.90
25741;DHT22;13592;50.838;4.412;2022-11-20T16:42:08;10.40;99.90
25741;DHT22;13592;50.838;4.412;2022-11-20T16:44:33;10.40;99.90
25741;DHT22;13592;50.838;4.412;2022-11-20T16:47:02;10.40;99.90
25741;DHT22;13592;50.838;4.412;2022-11-20T16:51:58;10.30;99.90
25741;DHT22;13592;50.838;4.412;2022-11-20T16:54:24;10.30;99.90
25741;DHT22;13592;50.838;4.412;2022-11-20T16:56:53;10.30;99.90
25741;DHT22;13592;50.838;4.412;2022-11-20T17:01:49;10.40;99.90
25741;DHT22;13592;50.838;4.412;2022-11-20T17:04:18;10.50;99.90
25741;DHT22;13592;50.838;4.412;2022-11-20T17:06:43;10.50;99.90
25741;DHT22;13592;50.838;4.412;2022-11-20T17:14:33;10.40;99.90
25741;DHT22;13592;50.838;4.412;2022-11-20T17:19:43;10.20;99.90
25741;DHT22;13592;50.838;4.412;2022-11-20T17:22:10;10.10;99.90
25741;DHT22;13592;50.838;4.412;2022-11-20T17:24:36;10.20;99.90
25741;DHT22;13592;50.838;4.412;2022-11-20T17:27:05;10.20;99.90
25741;DHT22;13592;50.838;4.412;2022-11-20T17:29:37;10.30;99.90
25741;DHT22;13592;50.838;4.412;2022-11-20T17:32:04;10.20;99.90
25741;DHT22;13592;50.838;4.412;2022-11-20T17:34:32;10.30;99.90
25741;DHT22;13592;50.838;4.412;2022-11-20T17:36:58;10.20;99.90
25741;DHT22;13592;50.838;4.412;2022-11-20T17:39:23;10.10;99.90
25741;DHT22;13592;50.838;4.412;2022-11-20T17:41:55;10.00;99.90
25741;DHT22;13592;50.838;4.412;2022-11-20T17:44:41;9.80;99.90
25741;DHT22;13592;50.838;4.412;2022-11-20T17:47:08;9.70;99.90
25741;DHT22;13592;50.838;4.412;2022-11-20T17:49:33;9.90;99.90
25741;DHT22;13592;50.838;4.412;2022-11-20T17:51:59;10.00;99.90
25741;DHT22;13592;50.838;4.412;2022-11-20T17:54:28;10.10;99.90
25741;DHT22;13592;50.838;4.412;2022-11-20T17:56:56;10.10;99.90
25741;DHT22;13592;50.838;4.412;2022-11-20T18:02:09;9.90;99.90
25741;DHT22;13592;50.838;4.412;2022-11-20T18:07:19;9.80;99.90
25741;DHT22;13592;50.838;4.412;2022-11-20T18:09:45;10.10;99.90
25741;DHT22;13592;50.838;4.412;2022-11-20T18:12:12;10.00;99.90
25741;DHT22;13592;50.838;4.412;2022-11-20T18:14:45;10.10;99.90
25741;DHT22;13592;50.838;4.412;2022-11-20T18:17:13;10.10;99.90
25741;DHT22;13592;50.838;4.412;2022-11-20T18:19:42;9.80;99.90
25741;DHT22;13592;50.838;4.412;2022-11-20T18:22:09;9.80;99.90
25741;DHT22;13592;50.838;4.412;2022-11-20T18:27:48;9.60;99.90
25741;DHT22;13592;50.838;4.412;2022-11-20T18:30:14;9.40;99.90
25741;DHT22;13592;50.838;4.412;2022-11-20T18:32:40;9.40;99.90
25741;DHT22;13592;50.838;4.412;2022-11-20T18:35:08;9.50;99.90
25741;DHT22;13592;50.838;4.412;2022-11-20T18:37:33;9.50;99.90
25741;DHT22;13592;50.838;4.412;2022-11-20T18:39:59;9.60;99.90
25741;DHT22;13592;50.838;4.412;2022-11-20T18:42:24;9.70;99.90
25741;DHT22;13592;50.838;4.412;2022-11-20T18:45:09;9.70;99.90
25741;DHT22;13592;50.838;4.412;2022-11-20T18:47:35;9.80;99.90
25741;DHT22;13592;50.838;4.412;2022-11-20T18:50:06;9.60;99.90
25741;DHT22;13592;50.838;4.412;2022-11-20T18:52:39;9.50;99.90
25741;DHT22;13592;50.838;4.412;2022-11-20T18:55:06;9.50;99.90
25741;DHT22;13592;50.838;4.412;2022-11-20T18:57:36;9.60;99.90
25741;DHT22;13592;50.838;4.412;2022-11-20T19:00:04;9.50;99.90
25741;DHT22;13592;50.838;4.412;2022-11-20T19:02:34;9.60;99.90
25741;DHT22;13592;50.838;4.412;2022-11-20T19:05:02;9.50;99.90
25741;DHT22;13592;50.838;4.412;2022-11-20T19:07:33;9.80;99.90
25741;DHT22;13592;50.838;4.412;2022-11-20T19:10:00;9.60;99.90
25741;DHT22;13592;50.838;4.412;2022-11-20T19:12:38;9.80;99.90
25741;DHT22;13592;50.838;4.412;2022-11-20T19:15:08;10.00;99.90
25741;DHT22;13592;50.838;4.412;2022-11-20T19:17:41;9.90;99.90
25741;DHT22;13592;50.838;4.412;2022-11-20T19:20:13;9.60;99.90
25741;DHT22;13592;50.838;4.412;2022-11-20T19:22:40;9.60;99.90
25741;DHT22;13592;50.838;4.412;2022-11-20T19:28:11;9.70;99.90
25741;DHT22;13592;50.838;4.412;2022-11-20T19:30:37;9.70;99.90
25741;DHT22;13592;50.838;4.412;2022-11-20T19:35:53;9.70;99.90
25741;DHT22;13592;50.838;4.412;2022-11-20T19:38:20;9.70;99.90
25741;DHT22;13592;50.838;4.412;2022-11-20T19:40:48;9.80;99.90
25741;DHT22;13592;50.838;4.412;2022-11-20T19:43:13;9.60;99.90
25741;DHT22;13592;50.838;4.412;2022-11-20T19:45:45;9.60;99.90
25741;DHT22;13592;50.838;4.412;2022-11-20T19:48:12;9.60;99.90
25741;DHT22;13592;50.838;4.412;2022-11-20T19:50:37;9.60;99.90
25741;DHT22;13592;50.838;4.412;2022-11-20T19:53:06;9.50;99.90
25741;DHT22;13592;50.838;4.412;2022-11-20T19:55:41;9.50;99.90
25741;DHT22;13592;50.838;4.412;2022-11-20T19:58:10;9.40;99.90
25741;DHT22;13592;50.838;4.412;2022-11-20T20:00:36;9.30;99.90
25741;DHT22;13592;50.838;4.412;2022-11-20T20:03:01;9.40;99.90
25741;DHT22;13592;50.838;4.412;2022-11-20T20:05:29;9.50;99.90
25741;DHT22;13592;50.838;4.412;2022-11-20T20:08:00;9.40;99.90
25741;DHT22;13592;50.838;4.412;2022-11-20T20:10:26;9.40;99.90
25741;DHT22;13592;50.838;4.412;2022-11-20T20:12:52;9.40;99.90
25741;DHT22;13592;50.838;4.412;2022-11-20T20:15:19;9.30;99.90
25741;DHT22;13592;50.838;4.412;2022-11-20T20:17:44;9.40;99.90
25741;DHT22;13592;50.838;4.412;2022-11-20T20:20:11;9.40;99.90
25741;DHT22;13592;50.838;4.412;2022-11-20T20:22:37;9.40;99.90
25741;DHT22;13592;50.838;4.412;2022-11-20T20:25:02;9.40;99.90
25741;DHT22;13592;50.838;4.412;2022-11-20T20:27:32;9.40;99.90
25741;DHT22;13592;50.838;4.412;2022-11-20T20:30:06;9.50;99.90